createdAt,value
2023-05-05T00:01:56.897Z,95068.88
2023-05-05T00:04:23.467Z,95068.50
2023-05-05T00:06:49.936Z,95059.06
2023-05-05T00:09:16.336Z,95066.81
2023-05-05T00:11:42.832Z,95066.53
2023-05-05T00:14:09.470Z,95063.88
2023-05-05T00:16:37.001Z,95058.97
2023-05-05T00:19:03.520Z,95065.91
2023-05-05T00:21:30.144Z,95057.72
2023-05-05T00:23:56.779Z,95067.69
2023-05-05T00:26:23.216Z,95064.00
2023-05-05T00:28:49.690Z,95068.25
2023-05-05T00:31:16.175Z,95062.53
2023-05-05T00:33:43.197Z,95061.56
2023-05-05T00:36:09.884Z,95056.03
2023-05-05T00:38:36.455Z,95057.72
2023-05-05T00:41:03.100Z,95056.88
2023-05-05T00:43:29.618Z,95052.00
2023-05-05T00:45:56.871Z,95045.88
2023-05-05T00:48:23.249Z,95047.13
2023-05-05T00:50:50.107Z,95049.63
2023-05-05T00:53:16.474Z,95057.75
2023-05-05T00:55:43.222Z,95058.56
2023-05-05T00:58:09.991Z,95049.22
2023-05-05T01:00:36.718Z,95047.19
2023-05-05T01:03:03.673Z,95039.88
2023-05-05T01:05:30.165Z,95043.78
2023-05-05T01:07:56.606Z,95044.22
2023-05-05T01:10:23.333Z,95042.25
2023-05-05T01:12:50.220Z,95039.41
2023-05-05T01:15:16.692Z,95035.75
2023-05-05T01:17:43.485Z,95032.25
2023-05-05T01:20:11.101Z,95026.09
2023-05-05T01:22:37.645Z,95028.47
2023-05-05T01:25:04.255Z,95035.19
2023-05-05T01:27:33.375Z,95028.88
2023-05-05T01:29:59.868Z,95032.97
2023-05-05T01:32:26.467Z,95029.25
2023-05-05T01:34:53.939Z,95023.88
2023-05-05T01:37:20.668Z,95033.06
2023-05-05T01:39:47.081Z,95026.28
2023-05-05T01:42:13.441Z,95022.81
2023-05-05T01:44:40.006Z,95030.69
2023-05-05T01:47:06.492Z,95030.66
2023-05-05T01:49:33.956Z,95032.69
2023-05-05T01:52:00.318Z,95028.75
2023-05-05T01:54:27.065Z,95042.66
2023-05-05T01:56:53.629Z,95038.75
2023-05-05T01:59:20.119Z,95041.72
2023-05-05T02:01:46.482Z,95041.28
2023-05-05T02:04:12.866Z,95032.88
2023-05-05T02:06:39.259Z,95035.91
2023-05-05T02:09:05.749Z,95031.63
2023-05-05T02:11:32.184Z,95037.28
2023-05-05T02:13:58.620Z,95036.94
2023-05-05T02:16:25.205Z,95034.91
2023-05-05T02:18:53.629Z,95028.38
2023-05-05T02:21:19.962Z,95028.00
2023-05-05T02:23:47.450Z,95034.44
2023-05-05T02:26:13.844Z,95031.41
2023-05-05T02:28:40.247Z,95028.91
2023-05-05T02:31:06.628Z,95024.63
2023-05-05T02:33:33.289Z,95034.69
2023-05-05T02:35:59.936Z,95026.53
2023-05-05T02:38:26.539Z,95030.81
2023-05-05T02:40:52.958Z,95027.38
2023-05-05T02:43:19.709Z,95027.50
2023-05-05T02:45:46.586Z,95022.28
2023-05-05T02:48:13.166Z,95024.28
2023-05-05T02:50:39.612Z,95024.03
2023-05-05T02:53:06.035Z,95018.47
2023-05-05T02:55:32.382Z,95024.53
2023-05-05T02:57:58.855Z,95025.50
2023-05-05T03:00:25.315Z,95023.84
2023-05-05T03:02:51.771Z,95025.31
2023-05-05T03:05:18.226Z,95019.31
2023-05-05T03:07:44.734Z,95019.47
2023-05-05T03:10:11.194Z,95023.25
2023-05-05T03:12:37.954Z,95024.03
2023-05-05T03:15:04.391Z,95016.72
2023-05-05T03:17:30.819Z,95014.81
2023-05-05T03:19:57.394Z,95009.72
2023-05-05T03:22:23.789Z,95014.19
2023-05-05T03:24:50.220Z,95013.66
2023-05-05T03:27:16.688Z,95014.94
2023-05-05T03:29:43.137Z,95011.38
2023-05-05T03:32:10.051Z,95011.63
2023-05-05T03:34:36.737Z,95009.38
2023-05-05T03:37:03.197Z,95011.09
2023-05-05T03:39:29.997Z,95013.69
2023-05-05T03:41:56.614Z,95019.13
2023-05-05T03:44:23.076Z,95016.47
2023-05-05T03:46:49.519Z,95012.84
2023-05-05T03:49:15.899Z,95015.94
2023-05-05T03:51:42.346Z,95012.84
2023-05-05T03:54:08.732Z,95010.19
2023-05-05T03:56:35.129Z,95005.09
2023-05-05T03:59:01.606Z,95001.59
2023-05-05T04:01:27.982Z,95007.91
2023-05-05T04:03:54.441Z,95010.94
2023-05-05T04:06:20.846Z,95005.97
2023-05-05T04:08:47.232Z,95003.97
2023-05-05T04:11:13.847Z,95006.47
2023-05-05T04:13:40.184Z,95005.28
2023-05-05T04:16:06.948Z,95006.44
2023-05-05T04:18:34.315Z,95006.34
2023-05-05T04:21:00.691Z,95001.59
2023-05-05T04:23:28.115Z,95003.59
2023-05-05T04:25:56.854Z,95009.72
2023-05-05T04:28:23.185Z,95006.88
2023-05-05T04:30:49.690Z,95010.09
2023-05-05T04:33:16.030Z,95020.22
2023-05-05T04:35:44.889Z,95013.09
2023-05-05T04:38:11.267Z,95023.50
2023-05-05T04:40:37.886Z,95007.25
2023-05-05T04:43:06.375Z,95012.47
2023-05-05T04:45:32.765Z,95015.75
2023-05-05T04:47:59.123Z,95015.13
2023-05-05T04:50:25.657Z,95014.41
2023-05-05T04:52:52.731Z,95017.59
2023-05-05T04:55:19.363Z,95011.75
2023-05-05T04:57:45.923Z,95014.66
2023-05-05T05:00:12.299Z,95021.25
2023-05-05T05:02:38.842Z,95024.97
2023-05-05T05:05:05.256Z,95022.63
2023-05-05T05:07:31.798Z,95021.06
2023-05-05T05:09:58.190Z,95026.63
2023-05-05T05:12:24.620Z,95022.03
2023-05-05T05:14:51.007Z,95022.31
2023-05-05T05:17:18.629Z,95025.41
2023-05-05T05:19:45.050Z,95023.03
2023-05-05T05:22:11.494Z,95023.28
2023-05-05T05:24:38.010Z,95025.00
2023-05-05T05:27:04.537Z,95020.41
2023-05-05T05:29:30.930Z,95031.72
2023-05-05T05:31:57.368Z,95020.63
2023-05-05T05:34:23.883Z,95020.50
2023-05-05T05:36:50.750Z,95013.06
2023-05-05T05:39:17.119Z,95026.34
2023-05-05T05:41:43.497Z,95027.41
2023-05-05T05:44:09.846Z,95040.38
2023-05-05T05:46:36.256Z,95030.28
2023-05-05T05:49:02.651Z,95029.53
2023-05-05T05:51:29.058Z,95037.00
2023-05-05T05:53:58.780Z,95036.28
2023-05-05T05:56:25.364Z,95032.41
2023-05-05T05:58:51.711Z,95025.38
2023-05-05T06:01:18.054Z,95028.09
2023-05-05T06:03:44.444Z,95028.31
2023-05-05T06:06:10.888Z,95034.28
2023-05-05T06:08:37.229Z,95030.22
2023-05-05T06:11:03.546Z,95031.66
2023-05-05T06:13:29.897Z,95033.94
2023-05-05T06:15:56.278Z,95031.41
2023-05-05T06:18:22.741Z,95033.78
2023-05-05T06:20:49.151Z,95031.56
2023-05-05T06:23:15.513Z,95031.38
2023-05-05T06:25:41.915Z,95030.63
2023-05-05T06:28:08.319Z,95026.75
2023-05-05T06:30:34.819Z,95020.03
2023-05-05T06:33:02.319Z,95023.34
2023-05-05T06:35:28.725Z,95021.94
2023-05-05T06:37:55.111Z,95010.25
2023-05-05T06:40:21.484Z,95012.50
2023-05-05T06:42:48.045Z,95014.31
2023-05-05T06:45:14.529Z,95018.00
2023-05-05T06:47:40.956Z,95016.34
2023-05-05T06:50:08.098Z,95004.00
2023-05-05T06:52:34.827Z,95013.84
2023-05-05T06:55:01.238Z,95013.38
2023-05-05T06:57:27.840Z,95007.53
2023-05-05T06:59:54.628Z,95011.19
2023-05-05T07:02:21.065Z,95007.84
2023-05-05T07:04:47.450Z,95014.75
2023-05-05T07:07:13.794Z,95006.63
2023-05-05T07:09:40.186Z,95010.69
2023-05-05T07:12:06.688Z,95017.22
2023-05-05T07:14:33.505Z,95012.00
2023-05-05T07:16:59.915Z,95014.25
2023-05-05T07:19:27.660Z,95016.94
2023-05-05T07:21:54.054Z,95012.38
2023-05-05T07:24:20.641Z,95008.59
2023-05-05T07:26:47.099Z,95012.09
2023-05-05T07:29:13.550Z,95011.38
2023-05-05T07:31:40.128Z,95002.16
2023-05-05T07:34:06.660Z,95000.63
2023-05-05T07:36:33.069Z,95007.25
2023-05-05T07:38:59.574Z,95005.59
2023-05-05T07:41:26.132Z,95009.53
2023-05-05T07:43:53.269Z,95006.22
2023-05-05T07:46:19.694Z,95002.94
2023-05-05T07:48:46.147Z,95003.34
2023-05-05T07:51:12.657Z,95004.56
2023-05-05T07:53:38.999Z,95004.22
2023-05-05T07:56:08.449Z,95006.63
2023-05-05T07:58:35.306Z,94997.88
2023-05-05T08:01:01.684Z,94997.38
2023-05-05T08:03:28.492Z,95004.50
2023-05-05T08:05:55.453Z,95001.03
2023-05-05T08:08:21.824Z,94992.88
2023-05-05T08:10:48.267Z,94985.34
2023-05-05T08:13:14.693Z,94984.88
2023-05-05T08:15:41.201Z,94980.28
2023-05-05T08:18:07.681Z,94977.50
2023-05-05T08:20:34.184Z,94979.16
2023-05-05T08:23:00.569Z,94973.09
2023-05-05T08:25:27.066Z,94972.97
2023-05-05T08:27:53.432Z,94970.00
2023-05-05T08:30:20.431Z,94967.50
2023-05-05T08:32:46.822Z,94970.34
2023-05-05T08:35:13.487Z,94964.66
2023-05-05T08:37:40.187Z,94964.19
2023-05-05T08:40:06.552Z,94968.25
2023-05-05T08:42:36.923Z,94964.63
2023-05-05T08:45:05.562Z,94963.84
2023-05-05T08:47:32.732Z,94969.94
2023-05-05T08:49:59.116Z,94960.31
2023-05-05T08:52:25.594Z,94965.69
2023-05-05T08:54:51.987Z,94968.47
2023-05-05T08:57:18.370Z,94956.38
2023-05-05T08:59:44.717Z,94956.91
2023-05-05T09:02:11.410Z,94956.38
2023-05-05T09:04:37.865Z,94963.00
2023-05-05T09:07:04.341Z,94959.38
2023-05-05T09:09:30.857Z,94956.16
2023-05-05T09:11:57.309Z,94952.91
2023-05-05T09:14:23.713Z,94954.31
2023-05-05T09:16:50.134Z,94950.97
2023-05-05T09:19:16.549Z,94944.81
2023-05-05T09:21:43.243Z,94948.94
2023-05-05T09:24:09.935Z,94952.00
2023-05-05T09:26:36.424Z,94956.25
2023-05-05T09:29:02.897Z,94946.63
2023-05-05T09:31:30.302Z,94947.44
2023-05-05T09:33:56.666Z,94937.16
2023-05-05T09:36:23.080Z,94935.81
2023-05-05T09:38:49.907Z,94933.63
2023-05-05T09:41:16.454Z,94936.25
2023-05-05T09:43:42.861Z,94931.72
2023-05-05T09:46:09.914Z,94920.88
2023-05-05T09:48:36.577Z,94922.75
2023-05-05T09:51:02.986Z,94924.38
2023-05-05T09:53:29.478Z,94920.13
2023-05-05T09:55:55.821Z,94915.56
2023-05-05T09:58:22.468Z,94913.81
2023-05-05T10:00:48.921Z,94917.19
2023-05-05T10:03:15.260Z,94915.97
2023-05-05T10:05:41.818Z,94912.94
2023-05-05T10:08:08.205Z,94907.91
2023-05-05T10:10:35.488Z,94906.03
2023-05-05T10:13:02.012Z,94911.81
2023-05-05T10:15:29.348Z,94911.47
2023-05-05T10:18:06.654Z,94907.66
2023-05-05T10:20:34.355Z,94908.22
2023-05-05T10:23:00.714Z,94905.91
2023-05-05T10:25:28.144Z,94896.88
2023-05-05T10:27:54.654Z,94902.78
2023-05-05T10:30:21.094Z,94899.59
2023-05-05T10:32:59.324Z,94896.03
2023-05-05T10:35:38.245Z,94891.16
2023-05-05T10:38:04.817Z,94885.16
2023-05-05T10:40:33.486Z,94881.59
2023-05-05T10:42:59.956Z,94879.25
2023-05-05T10:45:26.567Z,94882.88
2023-05-05T10:47:53.193Z,94869.75
2023-05-05T10:50:19.785Z,94876.94
2023-05-05T10:52:46.179Z,94871.88
2023-05-05T10:55:12.566Z,94870.09
2023-05-05T10:57:41.255Z,94864.88
2023-05-05T11:00:07.820Z,94858.47
2023-05-05T11:02:34.692Z,94852.78
2023-05-05T11:05:01.286Z,94849.03
2023-05-05T11:07:27.684Z,94847.28
2023-05-05T11:09:54.145Z,94844.03
2023-05-05T11:12:20.579Z,94837.81
2023-05-05T11:14:46.966Z,94842.34
2023-05-05T11:17:13.393Z,94837.72
2023-05-05T11:19:39.831Z,94843.16
2023-05-05T11:22:06.307Z,94842.69
2023-05-05T11:24:32.710Z,94837.47
2023-05-05T11:26:59.179Z,94829.69
2023-05-05T11:29:25.565Z,94834.34
2023-05-05T11:31:52.051Z,94830.63
2023-05-05T11:34:20.451Z,94825.59
2023-05-05T11:36:49.041Z,94832.78
2023-05-05T11:39:15.694Z,94831.03
2023-05-05T11:41:42.075Z,94835.41
2023-05-05T11:44:08.543Z,94829.09
2023-05-05T11:46:35.047Z,94832.94
2023-05-05T11:49:01.518Z,94836.03
2023-05-05T11:51:27.916Z,94835.63
2023-05-05T11:53:54.565Z,94830.22
2023-05-05T11:56:21.188Z,94836.31
2023-05-05T11:58:47.581Z,94830.38
2023-05-05T12:01:13.962Z,94829.81
2023-05-05T12:03:40.405Z,94825.97
2023-05-05T12:06:06.869Z,94828.19
2023-05-05T12:08:33.314Z,94825.13
2023-05-05T12:10:59.661Z,94824.75
2023-05-05T12:13:26.213Z,94831.75
2023-05-05T12:15:52.739Z,94820.34
2023-05-05T12:18:19.151Z,94813.44
2023-05-05T12:20:45.758Z,94813.16
2023-05-05T12:23:12.136Z,94808.84
2023-05-05T12:25:39.537Z,94815.22
2023-05-05T12:28:05.933Z,94802.34
2023-05-05T12:30:32.357Z,94803.84
2023-05-05T12:32:58.854Z,94802.81
2023-05-05T12:35:25.396Z,94804.59
2023-05-05T12:37:51.803Z,94800.34
2023-05-05T12:40:18.170Z,94806.00
2023-05-05T12:42:46.230Z,94810.22
2023-05-05T12:45:13.486Z,94804.50
2023-05-05T12:47:39.890Z,94799.47
2023-05-05T12:50:06.386Z,94792.53
2023-05-05T12:52:32.835Z,94801.00
2023-05-05T12:54:59.342Z,94795.06
2023-05-05T12:57:26.182Z,94787.31
2023-05-05T12:59:52.584Z,94777.28
2023-05-05T13:02:19.007Z,94768.72
2023-05-05T13:04:45.534Z,94762.38
2023-05-05T13:07:12.048Z,94754.06
2023-05-05T13:09:39.907Z,94747.88
2023-05-05T13:12:06.344Z,94740.63
2023-05-05T13:14:32.891Z,94743.91
2023-05-05T13:16:59.297Z,94750.16
2023-05-05T13:19:25.690Z,94758.88
2023-05-05T13:21:52.086Z,94750.75
2023-05-05T13:24:28.763Z,94754.31
2023-05-05T13:27:04.896Z,94748.97
2023-05-05T13:29:31.819Z,94752.25
2023-05-05T13:31:58.287Z,94750.06
2023-05-05T13:34:24.685Z,94750.06
2023-05-05T13:36:51.137Z,94747.75
2023-05-05T13:39:17.584Z,94734.47
2023-05-05T13:41:44.066Z,94734.50
2023-05-05T13:44:10.416Z,94729.88
2023-05-05T13:46:36.910Z,94725.50
2023-05-05T13:49:03.342Z,94725.78
2023-05-05T13:51:29.831Z,94718.00
2023-05-05T13:53:56.220Z,94711.78
2023-05-05T13:56:22.626Z,94701.44
2023-05-05T13:58:49.116Z,94716.34
2023-05-05T14:01:15.513Z,94728.69
2023-05-05T14:03:41.954Z,94738.94
2023-05-05T14:06:08.391Z,94736.41
2023-05-05T14:08:34.724Z,94738.94
2023-05-05T14:11:01.268Z,94744.97
2023-05-05T14:13:27.668Z,94736.34
2023-05-05T14:15:54.039Z,94748.28
2023-05-05T14:18:20.425Z,94760.22
2023-05-05T14:20:46.885Z,94750.28
2023-05-05T14:23:13.251Z,94759.00
2023-05-05T14:25:39.608Z,94766.13
2023-05-05T14:28:06.116Z,94770.16
2023-05-05T14:30:32.499Z,94773.22
2023-05-05T14:32:58.920Z,94762.59
2023-05-05T14:35:25.344Z,94775.41
2023-05-05T14:37:51.709Z,94775.31
2023-05-05T14:40:18.155Z,94778.19
2023-05-05T14:42:44.549Z,94789.28
2023-05-05T14:45:10.959Z,94796.13
2023-05-05T14:47:37.351Z,94787.75
2023-05-05T14:50:04.104Z,94794.63
2023-05-05T14:52:30.690Z,94798.06
2023-05-05T14:54:57.044Z,94786.22
2023-05-05T14:57:23.482Z,94791.00
2023-05-05T14:59:49.863Z,94787.31
2023-05-05T15:02:16.249Z,94784.44
2023-05-05T15:04:42.642Z,94788.91
2023-05-05T15:07:09.078Z,94795.66
2023-05-05T15:09:35.641Z,94800.03
2023-05-05T15:12:02.033Z,94793.50
2023-05-05T15:14:28.572Z,94805.69
2023-05-05T15:16:55.073Z,94805.00
2023-05-05T15:19:21.502Z,94807.25
2023-05-05T15:21:47.988Z,94809.22
2023-05-05T15:24:14.367Z,94817.31
2023-05-05T15:26:40.753Z,94806.19
2023-05-05T15:29:07.106Z,94811.38
2023-05-05T15:31:33.582Z,94813.34
2023-05-05T15:34:00.012Z,94812.06
2023-05-05T15:36:26.638Z,94821.66
2023-05-05T15:38:53.013Z,94815.69
2023-05-05T15:41:19.427Z,94809.63
2023-05-05T15:43:45.817Z,94816.97
2023-05-05T15:46:12.158Z,94821.31
2023-05-05T15:48:38.493Z,94826.00
2023-05-05T15:51:04.885Z,94824.22
2023-05-05T15:53:31.274Z,94818.41
2023-05-05T15:55:57.720Z,94830.63
2023-05-05T15:58:24.055Z,94822.25
2023-05-05T16:00:50.494Z,94827.94
2023-05-05T16:03:17.043Z,94826.94
2023-05-05T16:05:43.567Z,94826.91
2023-05-05T16:08:09.954Z,94824.03
2023-05-05T16:10:36.343Z,94818.59
2023-05-05T16:13:02.880Z,94830.22
2023-05-05T16:15:29.266Z,94825.72
2023-05-05T16:17:55.739Z,94831.94
2023-05-05T16:20:22.167Z,94831.91
2023-05-05T16:22:48.530Z,94833.72
2023-05-05T16:25:14.943Z,94833.81
2023-05-05T16:27:41.325Z,94831.38
2023-05-05T16:30:07.718Z,94836.00
2023-05-05T16:32:34.081Z,94838.50
2023-05-05T16:35:00.528Z,94840.06
2023-05-05T16:37:26.975Z,94837.94
2023-05-05T16:39:53.376Z,94845.28
2023-05-05T16:42:19.882Z,94836.75
2023-05-05T16:44:46.257Z,94824.84
2023-05-05T16:47:12.628Z,94825.88
2023-05-05T16:49:39.028Z,94822.19
2023-05-05T16:52:05.428Z,94829.19
2023-05-05T16:54:31.788Z,94823.28
2023-05-05T16:56:58.200Z,94834.34
2023-05-05T16:59:25.495Z,94836.22
2023-05-05T17:01:51.903Z,94836.59
2023-05-05T17:04:18.641Z,94850.81
2023-05-05T17:06:45.009Z,94837.75
2023-05-05T17:09:11.448Z,94836.97
2023-05-05T17:11:38.066Z,94839.53
2023-05-05T17:14:04.483Z,94831.88
2023-05-05T17:16:33.393Z,94841.09
2023-05-05T17:18:59.853Z,94837.84
2023-05-05T17:21:26.247Z,94839.09
2023-05-05T17:23:52.657Z,94837.69
2023-05-05T17:26:19.225Z,94832.84
2023-05-05T17:28:45.622Z,94820.66
2023-05-05T17:31:12.010Z,94830.06
2023-05-05T17:33:38.397Z,94827.88
2023-05-05T17:36:04.919Z,94825.59
2023-05-05T17:38:31.303Z,94830.63
2023-05-05T17:40:57.666Z,94841.06
2023-05-05T17:43:24.124Z,94837.94
2023-05-05T17:45:50.579Z,94839.66
2023-05-05T17:48:17.018Z,94839.88
2023-05-05T17:50:43.622Z,94842.81
2023-05-05T17:53:10.030Z,94848.44
2023-05-05T17:55:36.426Z,94851.25
2023-05-05T17:58:02.813Z,94848.25
2023-05-05T18:00:29.212Z,94852.47
2023-05-05T18:02:55.657Z,94853.31
2023-05-05T18:05:22.092Z,94851.38
2023-05-05T18:07:48.445Z,94854.28
2023-05-05T18:10:14.790Z,94850.94
2023-05-05T18:12:41.206Z,94848.16
2023-05-05T18:15:07.765Z,94857.25
2023-05-05T18:17:34.228Z,94851.22
2023-05-05T18:20:00.631Z,94861.03
2023-05-05T18:22:26.970Z,94866.88
2023-05-05T18:24:53.297Z,94863.13
2023-05-05T18:27:19.630Z,94860.13
2023-05-05T18:29:46.014Z,94864.56
2023-05-05T18:32:12.430Z,94870.28
2023-05-05T18:34:38.778Z,94864.78
2023-05-05T18:37:05.156Z,94861.44
2023-05-05T18:39:31.526Z,94866.69
2023-05-05T18:41:57.906Z,94864.34
2023-05-05T18:44:24.648Z,94867.88
2023-05-05T18:46:51.783Z,94871.50
2023-05-05T18:49:22.663Z,94870.91
2023-05-05T18:51:49.727Z,94878.38
2023-05-05T18:54:16.397Z,94879.75
2023-05-05T18:56:44.819Z,94879.88
2023-05-05T18:59:11.930Z,94879.41
2023-05-05T19:01:39.886Z,94881.84
2023-05-05T19:04:15.502Z,94887.03
2023-05-05T19:06:45.473Z,94878.66
2023-05-05T19:09:11.942Z,94876.31
2023-05-05T19:11:38.544Z,94885.31
2023-05-05T19:14:05.020Z,94893.09
2023-05-05T19:16:31.436Z,94894.63
2023-05-05T19:18:57.930Z,94900.06
2023-05-05T19:21:24.604Z,94898.41
2023-05-05T19:23:50.971Z,94901.81
2023-05-05T19:26:17.329Z,94909.69
2023-05-05T19:28:43.720Z,94903.47
2023-05-05T19:31:10.101Z,94906.63
2023-05-05T19:33:36.533Z,94903.34
2023-05-05T19:36:02.948Z,94907.69
2023-05-05T19:38:29.288Z,94894.53
2023-05-05T19:40:55.860Z,94904.06
2023-05-05T19:43:22.325Z,94911.72
2023-05-05T19:45:48.787Z,94909.84
2023-05-05T19:48:15.314Z,94905.69
2023-05-05T19:50:41.646Z,94896.97
2023-05-05T19:53:07.999Z,94892.22
2023-05-05T19:55:34.493Z,94892.69
2023-05-05T19:58:00.833Z,94900.78
2023-05-05T20:00:28.690Z,94903.31
2023-05-05T20:02:55.091Z,94898.53
2023-05-05T20:05:21.578Z,94901.75
2023-05-05T20:07:48.032Z,94905.91
2023-05-05T20:10:14.551Z,94909.84
2023-05-05T20:12:41.151Z,94912.91
2023-05-05T20:15:07.592Z,94911.84
2023-05-05T20:17:33.991Z,94906.06
2023-05-05T20:20:01.455Z,94902.50
2023-05-05T20:22:27.807Z,94904.19
2023-05-05T20:24:54.187Z,94905.91
2023-05-05T20:27:20.569Z,94906.59
2023-05-05T20:29:46.934Z,94906.13
2023-05-05T20:32:13.281Z,94910.56
2023-05-05T20:34:39.656Z,94913.09
2023-05-05T20:37:06.130Z,94908.13
2023-05-05T20:39:32.532Z,94914.19
2023-05-05T20:41:59.082Z,94914.38
2023-05-05T20:44:25.420Z,94910.66
2023-05-05T20:46:52.137Z,94906.13
2023-05-05T20:49:18.989Z,94913.31
2023-05-05T20:51:45.329Z,94914.38
2023-05-05T20:54:11.665Z,94910.28
2023-05-05T20:56:39.224Z,94900.84
2023-05-05T20:59:05.605Z,94905.38
2023-05-05T21:01:32.154Z,94911.16
2023-05-05T21:03:58.696Z,94907.50
2023-05-05T21:06:25.094Z,94905.72
2023-05-05T21:08:51.659Z,94905.59
2023-05-05T21:11:18.075Z,94906.94
2023-05-05T21:13:45.443Z,94903.53
2023-05-05T21:16:12.112Z,94896.53
2023-05-05T21:51:02.832Z,94902.38
2023-05-05T21:53:34.970Z,94896.59
2023-05-05T21:58:46.229Z,94914.28
2023-05-05T22:01:14.312Z,94901.56
2023-05-05T22:03:52.474Z,94916.97
2023-05-05T22:06:18.925Z,94913.56
2023-05-05T22:08:45.395Z,94916.88
2023-05-05T22:11:11.802Z,94913.78
2023-05-05T22:16:28.699Z,94914.13
2023-05-05T22:18:55.221Z,94918.44
2023-05-05T22:29:21.329Z,94905.59
2023-05-05T22:31:54.545Z,94919.16
2023-05-05T22:35:23.710Z,94913.59
2023-05-05T22:37:37.523Z,94916.25
2023-05-05T22:43:01.273Z,94940.84
2023-05-05T22:45:27.946Z,94942.34
2023-05-05T22:48:01.960Z,94943.38
2023-05-05T22:50:28.493Z,94944.97
2023-05-05T22:53:01.524Z,94946.59
2023-05-05T22:55:27.932Z,94943.06
2023-05-05T22:57:57.264Z,94948.81
2023-05-05T23:00:23.769Z,94947.59
2023-05-05T23:02:50.264Z,94934.69
2023-05-05T23:05:16.816Z,94918.44
2023-05-05T23:07:56.994Z,94917.38
2023-05-05T23:10:23.836Z,94908.59
2023-05-05T23:12:50.423Z,94906.09
2023-05-05T23:16:58.040Z,94896.69
2023-05-05T23:20:59.061Z,94895.53
2023-05-05T23:23:25.624Z,94890.88
2023-05-05T23:25:52.094Z,94887.38
2023-05-05T23:28:18.538Z,94894.38
2023-05-05T23:30:45.077Z,94890.06
2023-05-05T23:33:11.654Z,94891.50
2023-05-05T23:35:38.145Z,94889.88
2023-05-05T23:38:04.748Z,94894.78
2023-05-05T23:40:31.429Z,94893.41
2023-05-05T23:42:57.895Z,94888.69
2023-05-05T23:45:24.373Z,94887.50
2023-05-05T23:47:50.935Z,94883.44
2023-05-05T23:50:17.413Z,94889.00
2023-05-05T23:52:43.802Z,94893.13
2023-05-05T23:55:10.428Z,94890.47
2023-05-05T23:57:37.134Z,94887.19
